Tenerife Norte / Los Rodeos GCXO

Aviation Digital Data Service (ADDS)

Output produced by METARs form (0009 UTC 23 June 2017)
METAR text: GCXO 230000Z AUTO VRB02KT 9999 NCD 25/04 Q1021
Conditions at: GCXO (TENERIFE/LOS ROD, ES) observed 0000 UTC 23 June 2017
Temperature: 25.0°C (77°F)
Dewpoint: 4.0°C (39°F) [RH = 26%]
Pressure (altimeter): 30.15 inches Hg (1021.0 mb)
Winds: variable direction winds at 2 MPH (2 knots; 1.0 m/s)
Visibility: 6 or more miles (10+ km)
Ceiling: at least 12,000 feet AGL
Clouds: sky clear below 12,000 feet AGL
Weather: no significant weather observed at this time

Forecast for: GCXO (TENERIFE/LOS ROD, ES)
Text: TAF GCXO 222000Z 2221/2321 29015KT 9999 FEW010 TX27/2313Z TN17/2305Z
Forecast period: 2100 UTC 22 June 2017 to 2100 UTC 23 June 2017
Forecast type: FROM: standard forecast or significant change
Winds: from the WNW (290 degrees) at 17 MPH (15 knots; 7.8 m/s)
Visibility: 6 or more miles (10+ km)
Clouds: few clouds at 1000 feet AGL
Weather: no significant weather forecast for this period
Text: TEMPO 2304/2312 VRB05KT
Forecast period: 0400 to 1200 UTC 23 June 2017
Forecast type: TEMPORARY: The following changes expected for less than half the time period
Winds: variable direction winds at 6 MPH (5 knots; 2.6 m/s)
Weather: no significant weather forecast for this period

Tenerife Sur / Aeropuerto GCTS

Aviation Digital Data Service (ADDS)

Output produced by METARs form (0009 UTC 23 June 2017)
METAR text: GCTS 230000Z 05014KT 9999 FEW020 23/19 Q1016 NOSIG
Conditions at: GCTS (TENERIFE SUR/REI, ES) observed 0000 UTC 23 June 2017
Temperature: 23.0°C (73°F)
Dewpoint: 19.0°C (66°F) [RH = 78%]
Pressure (altimeter): 30.00 inches Hg (1016.0 mb)
Winds: from the NE (50 degrees) at 16 MPH (14 knots; 7.3 m/s)
Visibility: 6 or more miles (10+ km)
Ceiling: at least 12,000 feet AGL
Clouds: few clouds at 2000 feet AGL
Weather: no significant weather observed at this time

Forecast for: GCTS (TENERIFE SUR/REI, ES)
Text: TAF GCTS 222000Z 2221/2321 06017KT CAVOK TX31/2313Z TN22/2305Z
Forecast period: 2100 to 2200 UTC 22 June 2017
Forecast type: FROM: standard forecast or significant change
Winds: from the ENE (60 degrees) at 20 MPH (17 knots; 8.8 m/s)
Visibility: 6 or more miles (10+ km)
Clouds: not forecast
Weather: no significant weather forecast for this period
Text: BECMG 2222/2301 05007KT
Forecast period: 2200 UTC 22 June 2017 to 2100 UTC 23 June 2017
Forecast type: BECOMING: Conditions expected to become as follows by 0100 UTC 23 June 2017
Winds: from the NE (50 degrees) at 8 MPH (7 knots; 3.6 m/s)
Visibility: 6 or more miles (10+ km)
Weather: no significant weather forecast for this period

La Palma / Aeropuerto GCLA

Aviation Digital Data Service (ADDS)

Output produced by METARs form (0009 UTC 23 June 2017)
METAR text: GCLA 230000Z AUTO 02013KT 350V060 CAVOK 23/19 Q1019
Conditions at: GCLA (LA PALMA AIRPORT, ES) observed 0000 UTC 23 June 2017
Temperature: 23.0°C (73°F)
Dewpoint: 19.0°C (66°F) [RH = 78%]
Pressure (altimeter): 30.09 inches Hg (1019.0 mb)
Winds: from the NNE (20 degrees) at 15 MPH (13 knots; 6.8 m/s)
Visibility: 6 or more miles (10+ km)
Ceiling: ceiling and visibility are OK
Clouds: unknown
Weather: no significant weather observed at this time

Forecast for: GCLA (LA PALMA AIRPORT, ES)
Text: TAF GCLA 222000Z 2221/2321 34005KT 9999 FEW020 TX29/2315Z TN22/2305Z
Forecast period: 2100 UTC 22 June 2017 to 0800 UTC 23 June 2017
Forecast type: FROM: standard forecast or significant change
Winds: from the NNW (340 degrees) at 6 MPH (5 knots; 2.6 m/s)
Visibility: 6 or more miles (10+ km)
Clouds: few clouds at 2000 feet AGL
Weather: no significant weather forecast for this period
Text: BECMG 2308/2310 04010KT
Forecast period: 0800 to 2100 UTC 23 June 2017
Forecast type: BECOMING: Conditions expected to become as follows by 1000 UTC 23 June 2017
Winds: from the NE (40 degrees) at 12 MPH (10 knots; 5.2 m/s)
Visibility: 6 or more miles (10+ km)
Clouds: few clouds at 2000 feet AGL
Weather: no significant weather forecast for this period

Hierro / Aeropuerto GCHI

Aviation Digital Data Service (ADDS)

Output produced by METARs form (0009 UTC 23 June 2017)
METAR text: GCHI 230000Z AUTO 34020KT 9999 BKN009/// 23/20 Q1018
Conditions at: GCHI (HIERRO AIRPORT , ES) observed 0000 UTC 23 June 2017
Temperature: 23.0°C (73°F)
Dewpoint: 20.0°C (68°F) [RH = 83%]
Pressure (altimeter): 30.06 inches Hg (1018.0 mb)
Winds: from the NNW (340 degrees) at 23 MPH (20 knots; 10.4 m/s)
Visibility: 6 or more miles (10+ km)
Ceiling: 900 feet AGL
Clouds: broken clouds at 900 feet AGL
Weather: no significant weather observed at this time

Forecast for: GCHI (HIERRO AIRPORT , ES)
Text: TAF GCHI 222000Z 2221/2321 01011KT 9999 FEW020 TX27/2313Z TN21/2305Z
Forecast period: 2100 UTC 22 June 2017 to 2100 UTC 23 June 2017
Forecast type: FROM: standard forecast or significant change
Winds: from the N (10 degrees) at 13 MPH (11 knots; 5.7 m/s)
Visibility: 6 or more miles (10+ km)
Clouds: few clouds at 2000 feet AGL
Weather: no significant weather forecast for this period

Gran Canaria / Aeropuerto GCLP

Aviation Digital Data Service (ADDS)

Output produced by METARs form (0009 UTC 23 June 2017)
METAR text: GCLP 230000Z 01016KT CAVOK 25/16 Q1017 NOSIG
Conditions at: GCLP (LAS PALMAS/GANDO, ES) observed 0000 UTC 23 June 2017
Temperature: 25.0°C (77°F)
Dewpoint: 16.0°C (61°F) [RH = 57%]
Pressure (altimeter): 30.03 inches Hg (1017.0 mb)
Winds: from the N (10 degrees) at 18 MPH (16 knots; 8.3 m/s)
Visibility: 6 or more miles (10+ km)
Ceiling: ceiling and visibility are OK
Clouds: unknown
Weather: no significant weather observed at this time

Forecast for: GCLP (LAS PALMAS/GANDO, ES)
Text: TAF GCLP 222000Z 2221/2321 02016KT CAVOK TX33/2313Z TN21/2305Z
Forecast period: 2100 UTC 22 June 2017 to 2100 UTC 23 June 2017
Forecast type: FROM: standard forecast or significant change
Winds: from the NNE (20 degrees) at 18 MPH (16 knots; 8.3 m/s)
Visibility: 6 or more miles (10+ km)
Clouds: not forecast
Weather: no significant weather forecast for this period

Fuerteventura / Aeropuerto GCFV

Aviation Digital Data Service (ADDS)

Output produced by METARs form (0009 UTC 23 June 2017)
METAR text: GCFV 230000Z AUTO 05012KT CAVOK 23/20 Q1017
Conditions at: GCFV (FUERTEVENTURA AR, ES) observed 0000 UTC 23 June 2017
Temperature: 23.0°C (73°F)
Dewpoint: 20.0°C (68°F) [RH = 83%]
Pressure (altimeter): 30.03 inches Hg (1017.0 mb)
Winds: from the NE (50 degrees) at 14 MPH (12 knots; 6.2 m/s)
Visibility: 6 or more miles (10+ km)
Ceiling: ceiling and visibility are OK
Clouds: unknown
Weather: no significant weather observed at this time

Forecast for: GCFV (FUERTEVENTURA AR, ES)
Text: TAF GCFV 222000Z 2221/2321 03011KT CAVOK TX32/2313Z TN22/2305Z
Forecast period: 2100 UTC 22 June 2017 to 2100 UTC 23 June 2017
Forecast type: FROM: standard forecast or significant change
Winds: from the NNE (30 degrees) at 13 MPH (11 knots; 5.7 m/s)
Visibility: 6 or more miles (10+ km)
Clouds: not forecast
Weather: no significant weather forecast for this period

Lanzarote / Aeropuerto GCRR

Aviation Digital Data Service (ADDS)

Output produced by METARs form (0009 UTC 23 June 2017)
METAR text: GCRR 230000Z 02010KT CAVOK 24/18 Q1017
Conditions at: GCRR (ARRECIFE/LANZARO, ES) observed 0000 UTC 23 June 2017
Temperature: 24.0°C (75°F)
Dewpoint: 18.0°C (64°F) [RH = 69%]
Pressure (altimeter): 30.03 inches Hg (1017.0 mb)
Winds: from the NNE (20 degrees) at 12 MPH (10 knots; 5.2 m/s)
Visibility: 6 or more miles (10+ km)
Ceiling: ceiling and visibility are OK
Clouds: unknown
Weather: no significant weather observed at this time

Forecast for: GCRR (ARRECIFE/LANZARO, ES)
Text: TAF GCRR 222000Z 2221/2321 02012KT CAVOK TX33/2314Z TN22/2305Z
Forecast period: 2100 UTC 22 June 2017 to 2100 UTC 23 June 2017
Forecast type: FROM: standard forecast or significant change
Winds: from the NNE (20 degrees) at 14 MPH (12 knots; 6.2 m/s)
Visibility: 6 or more miles (10+ km)
Clouds: not forecast
Weather: no significant weather forecast for this period